aviador You're here:

KTVF Decoded Metar

THIEF RIVER in MN, USA
Report Time2017-06-29 07:01:00
UTC Time2017-06-29 07:12:00
Flight Rules ifr IFR
Wind310° at 04 kt
W.Decomp.*RWY 31: 4.0 kt HW 0.3 kt LCW
RWY 03: 0.3 kt HW 4 kt LCW
W.Rank310° ranks 1
Current wind is below 310° avg. (11.1)
Visibility9999 m
Phenomena:N/A
Clouds:Broken 005 Hf
Broken 014 Hf
Overcast 020 Hf
Expected CloudBase > 400 ft AGL from Temp-Dew spread
Ceiling500 ft
Temp15°C (ISA +2)
Dew Point14°C (94% RH)
AAT14.8°C
QNH1006 hPa
Density Alt1,834 ft
Elevation1,115 ft
Report Wrong Elevation
Raw Report
KTVF 290701Z AUTO 31004KT 10SM BKN005 BKN014 OVC020 15/14 A2972
RMK AO2 SLP067 T01500144=

Extra information for KTVF:More info

Metar Taf Metar & Taf Last 4 Metars F.Rules Stats Wind Profile Meteogram Temp Stats Airport Information Weather charts Add Link Nearby VenuesMetar ALERT Operation Metar Decoded Social comments

AIRNAV info for KTVF